Time;durP1;ratioP1;P1;durP2;ratioP2;P2;SDS_P1;SDS_P2;PMS_P1;PMS_P2;Temp;Humidity;BMP_temperature;BMP_pressure;BME280_temperature;BME280_humidity;BME280_pressure;Samples;Min_cycle;Max_cycle;Signal;HPM_P1;HPM_P2
2023/09/15 00:00:33;;;;;;;4.07;3.55;;;;;;;26.21;51.17;98879.66;2046526;28;20141;-51
2023/09/15 00:01:35;;;;;;;8.65;4.20;;;;;;;26.22;51.37;98878.59;2043015;28;20064;-53
2023/09/15 00:02:36;;;;;;;9.02;4.07;;;;;;;26.21;51.68;98879.66;2042077;28;20053;-50
2023/09/15 00:03:37;;;;;;;5.32;3.53;;;;;;;26.24;51.61;98877.28;2043824;28;20769;-49
2023/09/15 00:04:39;;;;;;;6.30;3.55;;;;;;;26.25;51.02;98875.41;2042759;28;20211;-50
2023/09/15 00:05:41;;;;;;;7.85;4.00;;;;;;;26.25;51.46;98875.41;2038511;28;20054;-50
2023/09/15 00:06:46;;;;;;;6.53;3.22;;;;;;;26.27;51.33;98878.66;2040990;28;20719;-53
2023/09/15 00:07:47;;;;;;;4.22;3.50;;;;;;;26.28;51.52;98877.63;2040502;28;20047;-57
2023/09/15 00:08:50;;;;;;;6.38;4.03;;;;;;;26.29;51.46;98866.47;2038376;28;20193;-50
2023/09/15 00:09:52;;;;;;;6.07;3.53;;;;;;;26.33;51.15;98872.25;2032701;28;20576;-50
2023/09/15 00:10:54;;;;;;;7.88;4.88;;;;;;;26.31;51.08;98866.25;2036257;28;20497;-54
2023/09/15 00:11:55;;;;;;;5.90;4.03;;;;;;;26.28;51.09;98867.56;2038375;28;20086;-53
2023/09/15 00:12:58;;;;;;;5.50;3.95;;;;;;;26.24;51.58;98868.28;2041093;28;21459;-54
2023/09/15 00:13:59;;;;;;;6.20;4.40;;;;;;;26.20;51.73;98861.72;2040869;28;20914;-52
2023/09/15 00:15:07;;;;;;;4.07;3.63;;;;;;;26.22;51.87;98867.75;2046822;28;20071;-55
2023/09/15 00:16:09;;;;;;;7.80;4.40;;;;;;;26.21;51.46;98864.16;2053988;28;20058;-52
2023/09/15 00:17:10;;;;;;;8.05;4.13;;;;;;;26.22;51.61;98865.84;2044418;28;20137;-51
2023/09/15 00:18:12;;;;;;;5.47;3.58;;;;;;;26.24;51.82;98865.56;2041203;28;20063;-56
2023/09/15 00:19:14;;;;;;;8.45;4.35;;;;;;;26.25;51.36;98867.25;2031987;28;20106;-55
2023/09/15 00:20:17;;;;;;;10.25;4.80;;;;;;;26.25;51.27;98864.53;2033060;28;21509;-56
2023/09/15 00:21:19;;;;;;;4.97;4.43;;;;;;;26.23;51.37;98869.38;2035486;28;20421;-49
2023/09/15 00:22:19;;;;;;;9.30;4.15;;;;;;;26.21;51.43;98866.88;2036546;28;20051;-52
2023/09/15 00:23:21;;;;;;;4.38;3.85;;;;;;;26.16;51.62;98858.69;2037310;28;21010;-47
2023/09/15 00:24:22;;;;;;;7.63;3.90;;;;;;;26.16;51.60;98866.84;2036133;28;20058;-53
2023/09/15 00:25:27;;;;;;;3.30;3.00;;;;;;;26.10;51.95;98864.25;2041158;28;20065;-48
2023/09/15 00:26:29;;;;;;;7.45;3.78;;;;;;;26.01;52.02;98864.66;2043787;28;20078;-55
2023/09/15 00:27:30;;;;;;;5.95;3.55;;;;;;;25.93;52.44;98865.06;2044624;28;20051;-53
2023/09/15 00:28:34;;;;;;;6.18;4.35;;;;;;;25.91;52.40;98864.53;2039638;28;20883;-51
2023/09/15 00:29:34;;;;;;;6.70;3.92;;;;;;;25.88;52.38;98858.72;2037964;28;20520;-48
2023/09/15 00:30:39;;;;;;;4.38;3.97;;;;;;;25.83;52.64;98854.06;2043612;28;20055;-56
2023/09/15 00:31:40;;;;;;;4.88;3.83;;;;;;;25.73;52.66;98860.09;2040351;28;20482;-53
2023/09/15 00:32:42;;;;;;;6.55;4.25;;;;;;;25.71;53.21;98850.53;2043245;28;20059;-54
2023/09/15 00:33:42;;;;;;;5.78;4.22;;;;;;;25.68;53.27;98849.13;2036261;28;20055;-50
2023/09/15 00:34:44;;;;;;;7.32;4.10;;;;;;;25.75;52.64;98854.44;2042804;28;20481;-47
2023/09/15 00:35:47;;;;;;;5.68;3.88;;;;;;;25.64;53.36;98854.25;2039363;28;20074;-47
2023/09/15 00:36:49;;;;;;;5.60;3.53;;;;;;;25.68;53.16;98854.56;2038705;28;20059;-47
2023/09/15 00:37:51;;;;;;;7.60;3.67;;;;;;;25.56;53.64;98848.38;2043644;28;20054;-47
2023/09/15 00:38:54;;;;;;;5.72;4.10;;;;;;;25.52;53.42;98850.78;2044088;28;20065;-47
2023/09/15 00:39:55;;;;;;;6.38;3.42;;;;;;;25.52;53.39;98856.19;2042352;28;20145;-51
2023/09/15 00:40:56;;;;;;;7.10;3.85;;;;;;;25.51;53.27;98854.53;2040143;28;20063;-49
2023/09/15 00:41:57;;;;;;;4.85;3.28;;;;;;;25.58;53.43;98852.50;2038556;28;20063;-53
2023/09/15 00:42:59;;;;;;;4.63;3.47;;;;;;;25.57;53.44;98850.84;2038461;28;20100;-59
2023/09/15 00:44:01;;;;;;;10.75;3.80;;;;;;;25.52;53.49;98860.78;2041906;28;20074;-55
2023/09/15 00:45:05;;;;;;;9.82;3.47;;;;;;;25.47;53.28;98853.38;2040688;28;20063;-47
2023/09/15 00:46:08;;;;;;;8.73;4.53;;;;;;;25.44;53.75;98853.06;2041699;28;20067;-50
2023/09/15 00:47:10;;;;;;;6.25;3.58;;;;;;;25.38;53.53;98849.41;2040118;28;20063;-52
2023/09/15 00:48:12;;;;;;;7.15;3.72;;;;;;;25.38;53.47;98855.69;2042216;28;20046;-52
2023/09/15 00:49:14;;;;;;;5.25;3.65;;;;;;;25.37;54.01;98854.00;2041388;28;20384;-51
2023/09/15 00:50:18;;;;;;;6.07;3.78;;;;;;;25.32;54.12;98853.09;2041253;28;21449;-55
2023/09/15 00:51:21;;;;;;;7.03;3.88;;;;;;;25.39;53.38;98845.63;2043851;28;20524;-51
2023/09/15 00:52:23;;;;;;;6.55;3.58;;;;;;;25.40;53.38;98847.28;2044962;28;20057;-49
2023/09/15 00:53:24;;;;;;;6.05;3.22;;;;;;;25.43;53.41;98852.22;2044775;28;20058;-54
2023/09/15 00:54:26;;;;;;;5.95;3.67;;;;;;;25.46;53.15;98849.00;2042757;28;20498;-52
2023/09/15 00:55:29;;;;;;;5.07;2.83;;;;;;;25.47;53.05;98849.84;2046802;28;20189;-52
2023/09/15 00:56:31;;;;;;;6.60;3.75;;;;;;;25.47;53.14;98847.13;2051496;28;20352;-53
2023/09/15 00:57:33;;;;;;;3.72;3.22;;;;;;;25.55;53.31;98847.56;2053690;28;20058;-55
2023/09/15 00:58:39;;;;;;;5.35;3.22;;;;;;;25.63;52.64;98847.16;2044414;28;20051;-53
2023/09/15 00:59:42;;;;;;;4.13;3.08;;;;;;;25.66;52.44;98842.28;2050118;28;20062;-51
2023/09/15 01:00:45;;;;;;;6.05;3.80;;;;;;;25.69;52.39;98847.25;2048709;28;20348;-49
2023/09/15 01:01:47;;;;;;;6.28;3.50;;;;;;;25.74;52.40;98850.91;2052230;28;20054;-49
2023/09/15 01:02:50;;;;;;;4.50;3.90;;;;;;;25.78;52.59;98854.75;2048803;28;20628;-50
2023/09/15 01:03:52;;;;;;;4.57;2.80;;;;;;;25.81;52.14;98848.81;2044020;28;20047;-52
2023/09/15 01:04:54;;;;;;;5.25;3.50;;;;;;;25.82;52.26;98849.63;2045670;28;20129;-47
2023/09/15 01:05:55;;;;;;;5.13;3.75;;;;;;;25.84;52.43;98847.53;2043956;28;20066;-53
2023/09/15 01:07:00;;;;;;;3.83;3.05;;;;;;;25.83;51.96;98841.28;2044395;28;20167;-47
2023/09/15 01:08:02;;;;;;;7.30;4.00;;;;;;;25.84;51.97;98842.09;2043181;28;20050;-53
2023/09/15 01:09:05;;;;;;;6.88;3.33;;;;;;;25.83;51.90;98846.72;2043954;28;20061;-54
2023/09/15 01:10:07;;;;;;;6.82;3.50;;;;;;;25.85;52.01;98843.75;2042983;28;20086;-55
2023/09/15 01:11:09;;;;;;;6.93;3.50;;;;;;;25.86;52.17;98845.41;2043824;28;20144;-54
2023/09/15 01:12:10;;;;;;;4.50;3.45;;;;;;;25.87;52.21;98841.63;2052840;28;20051;-50
2023/09/15 01:13:12;;;;;;;5.25;3.20;;;;;;;25.88;52.30;98843.25;2048740;28;20245;-49
2023/09/15 01:14:13;;;;;;;6.32;3.90;;;;;;;25.87;52.00;98847.03;2045368;28;20142;-54
2023/09/15 01:15:18;;;;;;;7.82;3.83;;;;;;;25.89;52.09;98854.97;2050587;28;20054;-52
2023/09/15 01:16:25;;;;;;;7.68;3.92;;;;;;;25.90;52.03;98851.97;2050333;28;20061;-49
2023/09/15 01:17:32;;;;;;;9.65;3.65;;;;;;;25.89;51.74;98849.53;2052462;28;20109;-51
2023/09/15 01:18:41;;;;;;;3.90;3.25;;;;;;;25.87;51.88;98859.81;2051076;28;20050;-50
2023/09/15 01:19:57;;;;;;;4.13;3.75;;;;;;;25.83;52.18;98856.78;2047468;28;20520;-48
2023/09/15 01:21:33;;;;;;;4.00;3.10;;;;;;;25.80;52.21;98854.53;2050347;28;20050;-49
2023/09/15 01:23:06;;;;;;;4.07;3.45;;;;;;;25.76;52.26;98856.88;2044887;28;20074;-47
2023/09/15 01:24:52;;;;;;;3.60;2.92;;;;;;;25.80;52.23;98849.09;2047231;28;21759;-48
2023/09/15 01:26:32;;;;;;;3.30;3.00;;;;;;;25.80;52.37;98849.09;2026257;28;20111;-51
2023/09/15 01:27:54;;;;;;;3.08;2.70;;;;;;;25.76;52.29;98856.88;2030525;28;20055;-53
2023/09/15 01:29:18;;;;;;;8.48;3.88;;;;;;;25.78;51.92;98862.91;2033771;28;20485;-50
2023/09/15 01:30:23;;;;;;;4.43;3.35;;;;;;;25.80;52.15;98863.50;2032879;28;20059;-49
2023/09/15 01:31:25;;;;;;;4.15;3.25;;;;;;;25.81;52.03;98861.59;2041357;28;20490;-49
2023/09/15 01:32:28;;;;;;;7.68;3.20;;;;;;;25.83;52.10;98859.50;2052964;28;20049;-47
2023/09/15 01:33:32;;;;;;;6.40;3.60;;;;;;;25.84;52.20;98858.41;2042812;28;20058;-56
2023/09/15 01:34:35;;;;;;;3.13;2.83;;;;;;;25.85;52.04;98866.31;2045263;28;20054;-54
2023/09/15 01:35:37;;;;;;;6.43;3.50;;;;;;;25.88;52.15;98856.84;2040242;28;20134;-48
2023/09/15 01:36:37;;;;;;;5.22;3.42;;;;;;;25.93;51.61;98873.22;2037998;28;20055;-55
2023/09/15 01:37:39;;;;;;;3.88;3.25;;;;;;;25.93;51.37;98870.50;2032253;28;20058;-49
2023/09/15 01:38:40;;;;;;;5.63;3.88;;;;;;;25.95;51.31;98868.38;2033266;28;20216;-52
2023/09/15 01:39:42;;;;;;;4.35;3.55;;;;;;;25.90;51.81;98860.13;2032324;28;20190;-54
2023/09/15 01:40:43;;;;;;;4.55;3.40;;;;;;;25.87;52.28;98866.06;2041217;28;20477;-54
2023/09/15 01:41:45;;;;;;;4.13;3.55;;;;;;;25.81;52.33;98865.13;2044026;28;20528;-51
2023/09/15 01:42:50;;;;;;;4.93;3.60;;;;;;;25.77;52.16;98865.84;2034045;28;20057;-52
2023/09/15 01:43:53;;;;;;;7.75;3.45;;;;;;;25.78;52.08;98871.06;2038419;28;20130;-49
2023/09/15 01:44:54;;;;;;;8.35;3.10;;;;;;;25.80;52.04;98868.09;2039283;28;20142;-52
2023/09/15 01:45:57;;;;;;;6.50;3.30;;;;;;;25.83;52.38;98873.06;2039968;28;20057;-49
2023/09/15 01:46:58;;;;;;;3.95;3.38;;;;;;;25.84;52.23;98863.84;2038115;28;20051;-51
2023/09/15 01:48:01;;;;;;;6.90;3.28;;;;;;;25.79;51.83;98866.44;2036064;28;20059;-52
2023/09/15 01:49:02;;;;;;;7.53;3.30;;;;;;;25.82;52.32;98866.75;2037841;28;20061;-54
2023/09/15 01:50:06;;;;;;;5.28;3.75;;;;;;;25.87;51.94;98860.63;2041415;28;21428;-53
2023/09/15 01:51:08;;;;;;;3.92;2.88;;;;;;;25.87;52.07;98867.97;2036264;28;20430;-52
2023/09/15 01:52:11;;;;;;;4.57;2.97;;;;;;;25.90;51.98;98864.75;2037568;28;20047;-50
2023/09/15 01:53:12;;;;;;;6.32;2.97;;;;;;;25.85;52.13;98866.31;2043511;28;20097;-50
2023/09/15 01:54:15;;;;;;;3.85;3.42;;;;;;;25.80;51.87;98870.81;2042800;28;20607;-49
2023/09/15 01:55:18;;;;;;;5.13;3.20;;;;;;;25.76;52.42;98867.75;2043565;28;20058;-51
2023/09/15 01:56:20;;;;;;;5.07;3.10;;;;;;;25.78;51.92;98864.81;2040479;28;20047;-49
2023/09/15 01:57:22;;;;;;;6.18;3.10;;;;;;;25.78;51.76;98865.63;2045793;28;20416;-50
2023/09/15 01:58:24;;;;;;;8.07;3.45;;;;;;;25.80;52.18;98868.09;2038757;28;20054;-49
2023/09/15 01:59:26;;;;;;;4.30;3.00;;;;;;;25.75;52.16;98859.84;2041196;28;20097;-49
2023/09/15 02:00:34;;;;;;;4.03;3.25;;;;;;;25.75;52.19;98865.28;2041537;28;20047;-53
2023/09/15 02:01:36;;;;;;;5.07;3.35;;;;;;;25.80;52.04;98857.25;2042699;28;20386;-55
2023/09/15 02:02:38;;;;;;;5.53;3.08;;;;;;;25.81;52.36;98865.13;2045215;28;20047;-52
2023/09/15 02:03:39;;;;;;;5.05;2.90;;;;;;;25.84;52.07;98863.84;2044332;28;20051;-49
2023/09/15 02:04:41;;;;;;;5.78;3.58;;;;;;;25.83;51.94;98856.78;2037892;28;21091;-53
2023/09/15 02:05:42;;;;;;;5.45;2.78;;;;;;;25.85;52.15;98865.47;2044091;28;20051;-50
2023/09/15 02:06:44;;;;;;;7.57;3.80;;;;;;;25.85;52.10;98860.91;2041802;28;20063;-47
2023/09/15 02:07:45;;;;;;;7.15;2.83;;;;;;;25.82;52.11;98860.50;2045858;28;20436;-52
2023/09/15 02:08:47;;;;;;;6.57;3.58;;;;;;;25.84;51.80;98863.84;2051207;28;20053;-50
2023/09/15 02:09:47;;;;;;;6.32;3.33;;;;;;;25.81;51.72;98859.69;2046225;28;20050;-52
2023/09/15 02:10:48;;;;;;;4.32;3.55;;;;;;;25.85;51.57;98865.47;2043118;28;20268;-52
2023/09/15 02:11:50;;;;;;;4.90;3.30;;;;;;;25.87;51.93;98857.09;2048331;28;20070;-50
2023/09/15 02:12:51;;;;;;;3.85;3.42;;;;;;;25.83;51.65;98854.88;2041760;28;20051;-51
2023/09/15 02:13:53;;;;;;;7.30;3.85;;;;;;;25.80;52.28;98862.66;2040889;28;21577;-48
2023/09/15 02:14:54;;;;;;;12.65;3.72;;;;;;;25.80;51.77;98862.66;2038153;28;20058;-53
2023/09/15 02:15:56;;;;;;;3.65;3.03;;;;;;;25.84;52.04;98858.41;2042709;28;20066;-53
2023/09/15 02:16:58;;;;;;;6.18;3.30;;;;;;;25.83;52.06;98864.94;2039989;28;20062;-53
2023/09/15 02:18:00;;;;;;;7.00;2.88;;;;;;;25.80;52.30;98854.53;2042170;28;20051;-52
2023/09/15 02:19:01;;;;;;;7.00;3.40;;;;;;;25.80;52.22;98852.63;2043468;28;20058;-52
2023/09/15 02:20:11;;;;;;;7.70;3.75;;;;;;;25.79;51.92;98844.69;2036053;28;20677;-49
2023/09/15 02:21:12;;;;;;;6.30;3.33;;;;;;;25.76;51.84;98856.06;2038153;28;20109;-50
2023/09/15 02:22:14;;;;;;;8.18;4.05;;;;;;;25.76;51.93;98854.16;2040465;28;20125;-48
2023/09/15 02:23:15;;;;;;;6.18;3.35;;;;;;;25.76;52.17;98850.63;2037875;28;20055;-54
2023/09/15 02:24:17;;;;;;;6.22;3.05;;;;;;;25.77;52.26;98852.25;2041156;28;20058;-48
2023/09/15 02:25:17;;;;;;;5.93;3.30;;;;;;;25.79;52.30;98850.13;2040735;28;20490;-51
2023/09/15 02:26:21;;;;;;;8.18;3.35;;;;;;;25.74;52.39;98850.91;2038175;28;20047;-52
2023/09/15 02:27:24;;;;;;;6.18;3.58;;;;;;;25.73;52.28;98851.13;2044016;28;21274;-53
2023/09/15 02:28:26;;;;;;;4.10;3.25;;;;;;;25.76;51.95;98854.16;2045224;28;20588;-49
2023/09/15 02:29:27;;;;;;;4.18;3.85;;;;;;;25.76;52.14;98853.34;2040910;28;20042;-53
2023/09/15 02:30:29;;;;;;;5.75;4.47;;;;;;;25.69;52.52;98855.41;2046281;28;20130;-49
2023/09/15 02:31:30;;;;;;;6.70;3.45;;;;;;;25.63;52.61;98852.59;2044681;28;20055;-54
2023/09/15 02:32:34;;;;;;;8.02;3.38;;;;;;;25.63;52.65;98852.59;2041520;28;20045;-47
2023/09/15 02:33:35;;;;;;;4.90;3.20;;;;;;;25.65;52.32;98860.50;2040349;28;20475;-51
2023/09/15 02:34:37;;;;;;;7.88;3.40;;;;;;;25.69;52.19;98855.41;2044304;28;20074;-50
2023/09/15 02:35:38;;;;;;;5.18;3.63;;;;;;;25.73;52.32;98851.13;2038500;28;20051;-53
2023/09/15 02:36:40;;;;;;;5.70;3.58;;;;;;;25.72;52.43;98853.03;2042608;28;20047;-49
2023/09/15 02:37:41;;;;;;;3.95;3.20;;;;;;;25.74;51.96;98858.19;2044413;28;20077;-49
2023/09/15 02:38:43;;;;;;;7.60;3.05;;;;;;;25.79;51.78;98856.38;2040441;28;20441;-52
2023/09/15 02:39:44;;;;;;;5.50;3.00;;;;;;;25.79;51.94;98861.00;2044930;28;20059;-52
2023/09/15 02:40:45;;;;;;;3.47;3.17;;;;;;;25.78;52.08;98859.38;2042493;28;20705;-53
2023/09/15 02:41:46;;;;;;;3.33;2.97;;;;;;;25.63;52.42;98858.03;2042567;28;20059;-52
2023/09/15 02:42:49;;;;;;;4.88;3.15;;;;;;;25.47;52.90;98863.44;2039915;28;20050;-52
2023/09/15 02:43:50;;;;;;;3.95;2.78;;;;;;;25.44;53.06;98859.31;2039442;28;20062;-49
2023/09/15 02:44:52;;;;;;;5.25;3.40;;;;;;;25.38;53.51;98857.53;2042225;28;20231;-48
2023/09/15 02:45:53;;;;;;;4.40;3.10;;;;;;;25.37;53.08;98854.00;2042894;28;20134;-52
2023/09/15 02:46:55;;;;;;;6.45;3.25;;;;;;;25.40;52.90;98858.94;2044558;28;20564;-53
2023/09/15 02:47:57;;;;;;;4.47;3.05;;;;;;;25.38;53.14;98852.97;2042476;28;20047;-54
2023/09/15 02:49:01;;;;;;;5.55;3.47;;;;;;;25.41;53.20;98860.63;2044262;28;20521;-53
2023/09/15 02:50:03;;;;;;;5.13;3.25;;;;;;;25.47;52.76;98860.72;2045347;28;20113;-52
2023/09/15 02:51:05;;;;;;;4.88;3.17;;;;;;;25.50;53.04;98860.22;2044547;28;20043;-48
2023/09/15 02:52:06;;;;;;;5.25;2.95;;;;;;;25.56;52.89;98851.91;2040443;28;20138;-48
2023/09/15 02:53:08;;;;;;;2.95;2.58;;;;;;;25.63;52.27;98851.75;2038449;28;20636;-53
2023/09/15 02:54:09;;;;;;;3.28;2.97;;;;;;;25.67;52.16;98854.81;2040314;28;20058;-54
2023/09/15 02:55:11;;;;;;;7.03;3.63;;;;;;;25.71;52.08;98856.78;2042673;28;20066;-47
2023/09/15 02:56:12;;;;;;;5.70;2.70;;;;;;;25.74;52.12;98853.59;2042646;28;20515;-48
2023/09/15 02:57:13;;;;;;;5.18;3.28;;;;;;;25.75;51.89;98851.72;2041045;28;20054;-52
2023/09/15 02:58:14;;;;;;;3.90;2.95;;;;;;;25.76;52.21;98846.00;2044554;28;20047;-48
2023/09/15 02:59:16;;;;;;;6.63;3.20;;;;;;;25.76;52.11;98843.28;2044849;28;20519;-52
2023/09/15 03:00:17;;;;;;;3.08;2.78;;;;;;;25.78;52.17;98846.59;2044834;28;20318;-47
2023/09/15 03:01:20;;;;;;;5.47;3.00;;;;;;;25.79;51.99;98847.41;2044379;28;21351;-50
2023/09/15 03:02:21;;;;;;;6.32;4.10;;;;;;;25.77;52.28;98847.69;2054528;28;20091;-47
2023/09/15 03:03:24;;;;;;;3.25;2.95;;;;;;;25.79;52.05;98839.25;2051548;28;20312;-51
2023/09/15 03:04:25;;;;;;;4.75;3.85;;;;;;;25.79;51.67;98833.84;2043275;28;20055;-55
2023/09/15 03:05:28;;;;;;;3.10;2.50;;;;;;;25.77;51.78;98836.81;2042321;28;20278;-54
2023/09/15 03:06:29;;;;;;;6.82;3.08;;;;;;;25.77;51.68;98833.25;2044642;28;20049;-52
2023/09/15 03:07:31;;;;;;;4.25;2.55;;;;;;;25.77;52.15;98828.66;2053422;28;20054;-51
2023/09/15 03:08:33;;;;;;;4.38;3.35;;;;;;;25.78;51.79;98833.00;2051911;28;20073;-56
2023/09/15 03:09:35;;;;;;;7.88;4.03;;;;;;;25.79;52.09;98829.22;2053264;28;20061;-49
2023/09/15 03:10:36;;;;;;;4.75;3.17;;;;;;;25.79;52.11;98828.41;2054726;28;20058;-48
2023/09/15 03:11:38;;;;;;;3.65;2.85;;;;;;;25.80;52.13;98830.88;2053431;28;20050;-56
2023/09/15 03:12:39;;;;;;;4.63;2.95;;;;;;;25.78;51.90;98821.31;2053232;28;20060;-49
2023/09/15 03:13:40;;;;;;;5.15;3.35;;;;;;;25.78;51.69;98819.44;2055546;28;20671;-50
2023/09/15 03:14:41;;;;;;;3.28;2.97;;;;;;;25.78;51.60;98824.03;2053159;28;20804;-49
2023/09/15 03:15:44;;;;;;;9.27;3.70;;;;;;;25.78;51.94;98815.91;2054198;28;20063;-53
2023/09/15 03:16:45;;;;;;;4.35;2.83;;;;;;;25.78;51.69;98822.16;2049800;28;20054;-48
2023/09/15 03:17:47;;;;;;;5.75;3.90;;;;;;;25.77;51.90;98815.06;2055602;28;20063;-51
2023/09/15 03:18:50;;;;;;;3.83;3.10;;;;;;;25.77;51.80;98812.38;2052914;28;20721;-50
2023/09/15 03:19:53;;;;;;;7.28;3.20;;;;;;;25.78;52.06;98811.28;2054907;28;20504;-46
2023/09/15 03:20:53;;;;;;;3.70;3.17;;;;;;;25.79;52.00;98812.09;2056543;28;20054;-53
2023/09/15 03:21:55;;;;;;;4.93;3.08;;;;;;;25.78;51.67;98810.47;2054070;28;20124;-50
2023/09/15 03:22:56;;;;;;;2.72;2.42;;;;;;;25.79;52.11;98803.94;2055915;28;20054;-52
2023/09/15 03:23:58;;;;;;;6.88;3.55;;;;;;;25.79;51.71;98806.66;2053533;28;20054;-50
2023/09/15 03:24:59;;;;;;;5.05;3.47;;;;;;;25.78;52.07;98805.84;2053491;28;20061;-48
2023/09/15 03:26:01;;;;;;;6.05;3.30;;;;;;;25.79;51.86;98802.03;2055868;28;20064;-51
2023/09/15 03:27:02;;;;;;;3.00;2.65;;;;;;;25.79;51.74;98801.22;2055815;28;20081;-54
2023/09/15 03:28:05;;;;;;;4.65;3.83;;;;;;;25.79;51.76;98807.47;2053742;28;20119;-53
2023/09/15 03:29:06;;;;;;;4.47;3.28;;;;;;;25.77;51.78;98806.06;2055226;28;20504;-51
2023/09/15 03:30:08;;;;;;;5.35;2.85;;;;;;;25.76;51.58;98805.25;2055451;28;20051;-49
2023/09/15 03:31:09;;;;;;;4.72;2.75;;;;;;;25.75;52.04;98810.97;2050171;28;20058;-51
2023/09/15 03:32:11;;;;;;;6.07;3.75;;;;;;;25.75;52.13;98811.78;2055022;28;20137;-53
2023/09/15 03:33:12;;;;;;;3.00;2.60;;;;;;;25.76;51.88;98812.59;2052262;28;20109;-47
2023/09/15 03:34:15;;;;;;;3.22;2.92;;;;;;;25.76;51.91;98821.56;2051348;28;20145;-55
2023/09/15 03:35:16;;;;;;;7.03;3.15;;;;;;;25.76;52.27;98809.88;2043707;28;20394;-54
2023/09/15 03:36:18;;;;;;;5.25;4.10;;;;;;;25.77;51.70;98814.22;2052312;28;20250;-51
2023/09/15 03:37:19;;;;;;;2.63;2.42;;;;;;;25.76;52.19;98812.59;2053647;28;20649;-52
2023/09/15 03:38:21;;;;;;;5.00;3.33;;;;;;;25.76;51.85;98815.31;2049956;28;20117;-50
2023/09/15 03:39:22;;;;;;;4.05;3.17;;;;;;;25.74;52.20;98818.28;2053023;28;20084;-50
2023/09/15 03:40:24;;;;;;;6.07;2.97;;;;;;;25.73;52.13;98818.53;2053016;28;20525;-47
2023/09/15 03:41:27;;;;;;;5.68;2.65;;;;;;;25.70;52.31;98813.59;2053990;28;20077;-53
2023/09/15 03:42:29;;;;;;;3.25;2.95;;;;;;;25.70;52.33;98819.84;2050383;28;20534;-55
2023/09/15 03:43:30;;;;;;;5.50;3.60;;;;;;;25.70;51.92;98819.03;2048413;28;20574;-53
2023/09/15 03:44:32;;;;;;;6.43;3.08;;;;;;;25.69;52.45;98811.94;2052422;28;20124;-54
2023/09/15 03:45:34;;;;;;;3.35;2.90;;;;;;;25.70;52.35;98821.72;2051604;28;20051;-52
2023/09/15 03:46:35;;;;;;;3.45;3.15;;;;;;;25.71;51.68;98821.47;2051286;28;20054;-51
2023/09/15 03:47:36;;;;;;;4.43;3.15;;;;;;;25.70;52.03;98819.03;2053681;28;20061;-53
2023/09/15 03:48:37;;;;;;;3.40;2.92;;;;;;;25.73;51.71;98815.81;2050890;28;20050;-55
2023/09/15 03:49:39;;;;;;;6.45;3.40;;;;;;;25.75;51.53;98822.66;2052311;28;20050;-53
2023/09/15 03:50:41;;;;;;;4.38;2.83;;;;;;;25.74;52.02;98820.16;2042999;28;20533;-52
2023/09/15 03:51:42;;;;;;;4.35;2.67;;;;;;;25.75;51.65;98821.81;2043528;28;20058;-53
2023/09/15 03:52:45;;;;;;;4.82;2.88;;;;;;;25.76;51.57;98824.28;2047226;28;20502;-49
2023/09/15 03:53:46;;;;;;;4.40;3.17;;;;;;;25.72;52.20;98825.03;2052509;28;20157;-51
2023/09/15 03:54:47;;;;;;;5.90;3.38;;;;;;;25.76;51.80;98820.75;2054227;28;20061;-47
2023/09/15 03:55:49;;;;;;;4.57;3.15;;;;;;;25.77;51.74;98817.78;2048998;28;20057;-53
2023/09/15 03:56:51;;;;;;;4.07;3.53;;;;;;;25.79;51.74;98818.34;2042971;28;20058;-53
2023/09/15 03:57:52;;;;;;;5.97;2.92;;;;;;;25.79;51.86;98822.97;2053274;28;20051;-55
2023/09/15 03:58:55;;;;;;;2.63;2.42;;;;;;;25.77;52.01;98825.09;2048477;28;20105;-50
2023/09/15 03:59:56;;;;;;;4.78;3.05;;;;;;;25.75;51.63;98824.53;2053201;28;20119;-52
2023/09/15 04:00:58;;;;;;;5.85;3.90;;;;;;;25.71;51.69;98817.94;2050460;28;20046;-51
2023/09/15 04:01:59;;;;;;;3.30;2.75;;;;;;;25.70;51.84;98819.03;2052844;28;20046;-47
2023/09/15 04:03:03;;;;;;;5.18;2.92;;;;;;;25.69;52.00;98817.38;2052463;28;21013;-58
2023/09/15 04:04:05;;;;;;;4.30;2.75;;;;;;;25.69;52.16;98812.75;2054156;28;20542;-49
2023/09/15 04:05:08;;;;;;;5.28;3.20;;;;;;;25.69;52.17;98812.75;2048010;28;20046;-53
2023/09/15 04:06:09;;;;;;;3.08;2.83;;;;;;;25.69;51.91;98809.22;2051641;28;20059;-52
2023/09/15 04:07:12;;;;;;;3.17;2.65;;;;;;;25.69;52.17;98814.66;2047192;28;20421;-50
2023/09/15 04:08:13;;;;;;;5.85;3.53;;;;;;;25.70;51.90;98821.72;2052247;28;20104;-49
2023/09/15 04:09:15;;;;;;;6.68;3.08;;;;;;;25.69;52.20;98817.38;2054997;28;20298;-47
2023/09/15 04:10:15;;;;;;;5.18;2.95;;;;;;;25.69;52.22;98814.66;2052726;28;20065;-50
2023/09/15 04:11:17;;;;;;;5.25;2.75;;;;;;;25.67;52.20;98814.91;2053062;28;20054;-53
2023/09/15 04:12:18;;;;;;;4.65;2.65;;;;;;;25.68;52.12;98813.81;2055628;28;20077;-49
2023/09/15 04:13:20;;;;;;;3.40;2.53;;;;;;;25.68;51.90;98815.72;2053356;28;20145;-49
2023/09/15 04:14:21;;;;;;;2.72;2.30;;;;;;;25.68;51.93;98815.72;2054248;28;20627;-51
2023/09/15 04:15:22;;;;;;;4.22;2.40;;;;;;;25.68;51.82;98807.56;2046282;28;20076;-52
2023/09/15 04:16:23;;;;;;;4.47;2.75;;;;;;;25.66;52.01;98807.81;2049669;28;20112;-52
2023/09/15 04:17:24;;;;;;;6.22;3.22;;;;;;;25.67;52.07;98814.91;2052115;28;20065;-54
2023/09/15 04:18:26;;;;;;;5.30;2.60;;;;;;;25.69;51.83;98812.75;2054591;28;20145;-50
2023/09/15 04:19:29;;;;;;;3.15;2.85;;;;;;;25.69;51.60;98811.94;2052699;28;20051;-49
2023/09/15 04:20:32;;;;;;;3.53;2.92;;;;;;;25.64;52.12;98816.22;2053209;28;20066;-52
2023/09/15 04:21:34;;;;;;;3.80;3.17;;;;;;;25.63;51.87;98819.16;2052012;28;20062;-54
2023/09/15 04:22:36;;;;;;;5.50;3.53;;;;;;;25.63;51.75;98814.56;2054353;28;20659;-53
2023/09/15 04:23:36;;;;;;;4.45;3.17;;;;;;;25.66;52.10;98815.13;2053970;28;20050;-51
2023/09/15 04:24:38;;;;;;;4.28;3.33;;;;;;;25.71;51.50;98812.50;2051363;28;20560;-52
2023/09/15 04:25:39;;;;;;;6.55;2.90;;;;;;;25.69;51.89;98809.22;2053074;28;20054;-53
2023/09/15 04:26:42;;;;;;;4.05;2.72;;;;;;;25.66;52.00;98807.81;2051966;28;20054;-47
2023/09/15 04:27:42;;;;;;;3.30;2.60;;;;;;;25.64;51.97;98808.06;2052645;28;20097;-52
2023/09/15 04:28:44;;;;;;;3.22;2.45;;;;;;;25.66;51.50;98806.97;2055005;28;20077;-49
2023/09/15 04:29:54;;;;;;;3.83;2.75;;;;;;;25.67;51.52;98811.38;2051673;28;20748;-52
2023/09/15 04:30:56;;;;;;;6.68;2.83;;;;;;;25.62;51.46;98806.66;2045806;28;20121;-53
2023/09/15 04:31:57;;;;;;;3.67;2.60;;;;;;;25.56;51.91;98807.63;2052068;28;20539;-49
2023/09/15 04:32:59;;;;;;;2.75;2.30;;;;;;;25.54;51.62;98816.03;2047451;28;20046;-51
2023/09/15 04:34:00;;;;;;;4.97;2.80;;;;;;;25.53;51.56;98825.25;2049212;28;20147;-52
2023/09/15 04:35:03;;;;;;;2.65;2.20;;;;;;;25.56;51.58;98821.22;2048596;28;20264;-53
2023/09/15 04:36:05;;;;;;;3.25;2.70;;;;;;;25.56;51.68;98815.78;2045869;28;20059;-54
2023/09/15 04:37:07;;;;;;;5.70;2.60;;;;;;;25.53;51.88;98821.72;2049390;28;20050;-51
2023/09/15 04:38:08;;;;;;;4.57;2.65;;;;;;;25.53;51.30;98825.25;2049704;28;20402;-53
2023/09/15 04:39:10;;;;;;;6.07;3.20;;;;;;;25.47;51.42;98830.84;2046955;28;20051;-49
2023/09/15 04:40:11;;;;;;;2.65;2.00;;;;;;;25.40;51.95;98833.69;2046392;28;20109;-48
2023/09/15 04:41:12;;;;;;;4.05;2.28;;;;;;;25.43;51.65;98841.34;2050816;28;20062;-54
2023/09/15 04:42:14;;;;;;;3.33;2.47;;;;;;;25.47;51.69;98844.41;2047188;28;20072;-52
2023/09/15 04:43:16;;;;;;;3.70;1.77;;;;;;;25.44;51.39;98845.72;2050874;28;20049;-53
2023/09/15 04:44:18;;;;;;;5.47;2.58;;;;;;;25.45;51.51;98847.38;2043216;28;20058;-46
2023/09/15 04:45:19;;;;;;;2.65;2.45;;;;;;;25.47;51.62;98847.13;2037292;28;20071;-47
2023/09/15 04:46:21;;;;;;;4.88;2.53;;;;;;;25.51;51.65;98853.72;2051222;28;20532;-50
2023/09/15 04:47:30;;;;;;;2.80;2.40;;;;;;;25.54;51.58;98842.38;2049706;28;20631;-54
2023/09/15 04:48:32;;;;;;;3.58;2.10;;;;;;;25.54;51.52;98853.22;2044959;28;20479;-51
2023/09/15 04:49:33;;;;;;;4.82;2.47;;;;;;;25.46;51.45;98850.91;2051769;28;20054;-51
2023/09/15 04:50:36;;;;;;;3.97;2.90;;;;;;;25.48;51.77;98854.22;2050420;28;20058;-53
2023/09/15 04:51:40;;;;;;;4.47;2.15;;;;;;;25.47;51.93;98847.97;2051387;28;20140;-54
2023/09/15 04:52:42;;;;;;;3.88;2.92;;;;;;;25.43;51.67;98852.22;2054301;28;20484;-53
2023/09/15 04:53:43;;;;;;;4.78;2.40;;;;;;;25.40;52.04;98844.56;2051247;28;20046;-49
2023/09/15 04:54:45;;;;;;;4.82;2.92;;;;;;;25.39;52.01;98854.59;2049624;28;20153;-55
2023/09/15 04:55:48;;;;;;;6.80;2.70;;;;;;;25.40;51.95;98847.28;2046428;28;20752;-47